Time;durP1;ratioP1;P1;durP2;ratioP2;P2;SDS_P1;SDS_P2;PMS_P1;PMS_P2;Temp;Humidity;BMP_temperature;BMP_pressure;BME280_temperature;BME280_humidity;BME280_pressure;Samples;Min_cycle;Max_cycle;Signal;HPM_P1;HPM_P2
2022/03/22 00:00:07;;;;;;;20.35;13.57;;;11.60;32.10;;;;;;5092465;28;20463;-61
2022/03/22 00:02:34;;;;;;;21.55;13.75;;;11.50;31.00;;;;;;5092459;28;20437;-62
2022/03/22 00:05:00;;;;;;;22.17;13.68;;;11.50;31.50;;;;;;5092238;28;20779;-63
2022/03/22 00:07:27;;;;;;;22.30;13.75;;;11.50;31.30;;;;;;5092065;28;20431;-60
2022/03/22 00:09:54;;;;;;;20.13;14.48;;;11.40;31.00;;;;;;5092382;28;20492;-62
2022/03/22 00:12:22;;;;;;;22.38;14.50;;;11.30;29.70;;;;;;5092147;28;20414;-62
2022/03/22 00:14:48;;;;;;;22.88;13.85;;;11.20;29.10;;;;;;5092165;28;20514;-59
2022/03/22 00:17:15;;;;;;;22.48;14.52;;;11.20;28.80;;;;;;5091704;28;20418;-60
2022/03/22 00:19:42;;;;;;;20.65;13.75;;;11.30;28.70;;;;;;5091992;28;20414;-61
2022/03/22 00:22:11;;;;;;;19.92;13.55;;;11.30;28.90;;;;;;5092315;28;20416;-60
2022/03/22 00:24:38;;;;;;;19.97;12.60;;;11.30;28.20;;;;;;5093147;28;20234;-60
2022/03/22 00:27:05;;;;;;;21.27;14.18;;;11.10;26.90;;;;;;5091717;28;20432;-61
2022/03/22 00:29:34;;;;;;;21.33;12.20;;;11.10;27.10;;;;;;5092151;28;20227;-59
2022/03/22 00:32:00;;;;;;;23.80;13.65;;;10.90;25.60;;;;;;5091866;28;20420;-61
2022/03/22 00:34:27;;;;;;;23.50;14.32;;;10.90;25.00;;;;;;5092138;28;20414;-61
2022/03/22 00:36:58;;;;;;;20.60;12.17;;;10.80;24.00;;;;;;5092699;28;20211;-61
2022/03/22 00:39:25;;;;;;;18.00;11.60;;;10.80;23.60;;;;;;5093071;28;20584;-61
2022/03/22 00:41:52;;;;;;;20.67;11.90;;;10.80;23.80;;;;;;5092792;28;20742;-60
2022/03/22 00:44:18;;;;;;;19.97;11.27;;;10.80;24.40;;;;;;5092607;28;20210;-61
2022/03/22 00:46:47;;;;;;;17.90;11.33;;;10.70;23.50;;;;;;5092505;28;20238;-60
2022/03/22 00:49:14;;;;;;;19.70;11.53;;;10.70;22.90;;;;;;5092661;28;20459;-61
2022/03/22 00:51:41;;;;;;;22.00;11.23;;;10.80;23.40;;;;;;5092880;28;20205;-61
2022/03/22 00:54:08;;;;;;;19.10;10.90;;;10.80;23.00;;;;;;5092562;28;20209;-61
2022/03/22 00:56:35;;;;;;;18.83;10.40;;;10.70;22.10;;;;;;5092256;28;20207;-61
2022/03/22 01:01:48;;;;;;;18.43;10.13;;;10.80;22.90;;;;;;5092584;28;20579;-61
2022/03/22 01:04:15;;;;;;;22.13;12.27;;;10.80;22.30;;;;;;5092622;28;20207;-61
2022/03/22 01:06:43;;;;;;;19.63;11.60;;;10.80;21.90;;;;;;5092051;28;20209;-61
2022/03/22 01:09:10;;;;;;;20.53;10.80;;;10.90;22.50;;;;;;5092230;28;20227;-61
2022/03/22 01:11:39;;;;;;;20.50;10.93;;;10.90;22.50;;;;;;5092008;28;20737;-62
2022/03/22 01:14:07;;;;;;;19.27;10.60;;;10.90;22.50;;;;;;5092525;28;20249;-61
2022/03/22 01:16:34;;;;;;;17.80;10.23;;;10.90;21.80;;;;;;5092178;28;20209;-57
2022/03/22 01:19:02;;;;;;;16.80;10.23;;;10.80;21.40;;;;;;5092236;28;20204;-58
2022/03/22 01:21:29;;;;;;;24.53;11.90;;;10.90;22.20;;;;;;5092239;28;20259;-59
2022/03/22 01:23:56;;;;;;;20.90;10.53;;;10.80;21.40;;;;;;5091911;28;20300;-59
2022/03/22 01:26:22;;;;;;;16.23;10.30;;;10.90;21.90;;;;;;5091634;28;20239;-58
2022/03/22 01:28:49;;;;;;;17.53;11.23;;;10.80;21.30;;;;;;5092290;28;20282;-56
2022/03/22 01:31:16;;;;;;;18.27;10.10;;;10.80;20.00;;;;;;5092067;28;20215;-51
2022/03/22 01:33:43;;;;;;;17.27;10.67;;;10.80;20.00;;;;;;5092167;28;20212;-56
2022/03/22 01:36:11;;;;;;;19.93;11.20;;;10.70;20.00;;;;;;5091526;28;20236;-59
2022/03/22 01:38:38;;;;;;;19.63;10.30;;;10.70;19.60;;;;;;5091909;28;20260;-57
2022/03/22 01:41:04;;;;;;;17.33;9.80;;;10.70;19.00;;;;;;5091998;28;20215;-56
2022/03/22 01:43:31;;;;;;;18.93;9.63;;;10.60;18.90;;;;;;5092076;28;20204;-53
2022/03/22 01:45:58;;;;;;;19.90;9.47;;;10.60;18.50;;;;;;5091461;28;20290;-57
2022/03/22 01:48:24;;;;;;;20.07;10.07;;;10.60;18.60;;;;;;5091790;28;20238;-56
2022/03/22 01:50:51;;;;;;;17.57;9.07;;;10.60;18.20;;;;;;5092016;28;20277;-53
2022/03/22 01:53:20;;;;;;;13.37;8.40;;;10.60;18.00;;;;;;5091505;28;20210;-56
2022/03/22 01:55:46;;;;;;;17.13;9.60;;;10.60;17.80;;;;;;5091682;28;20228;-58
2022/03/22 01:58:14;;;;;;;17.93;9.43;;;10.60;18.00;;;;;;5091648;28;20258;-55
2022/03/22 02:00:41;;;;;;;15.80;9.53;;;10.60;18.40;;;;;;5091787;28;20296;-60
2022/03/22 02:05:55;;;;;;;18.17;9.50;;;10.60;17.50;;;;;;5091418;28;20224;-59
2022/03/22 02:08:25;;;;;;;15.17;9.13;;;10.70;17.50;;;;;;5091766;28;20221;-56
2022/03/22 02:10:53;;;;;;;16.83;9.33;;;10.70;17.60;;;;;;5091766;28;20213;-52
2022/03/22 02:13:19;;;;;;;17.57;8.93;;;10.70;17.70;;;;;;5091702;28;20232;-58
2022/03/22 02:15:50;;;;;;;14.57;9.17;;;10.60;16.70;;;;;;5091532;28;20644;-55
2022/03/22 02:18:17;;;;;;;15.13;9.00;;;10.70;16.90;;;;;;5091140;28;20296;-57
2022/03/22 02:20:46;;;;;;;17.60;9.73;;;10.60;16.40;;;;;;5091752;28;20208;-58
2022/03/22 02:23:17;;;;;;;17.70;9.33;;;10.60;15.90;;;;;;5091564;28;20287;-57
2022/03/22 02:25:46;;;;;;;17.70;9.37;;;10.60;15.60;;;;;;5091400;28;20301;-58
2022/03/22 02:28:12;;;;;;;15.50;9.07;;;10.60;15.80;;;;;;5091198;28;20201;-56
2022/03/22 02:30:39;;;;;;;13.97;8.60;;;10.60;15.90;;;;;;5091441;28;20208;-60
2022/03/22 02:33:06;;;;;;;15.13;8.53;;;10.60;15.20;;;;;;5091624;28;20290;-57
2022/03/22 02:35:33;;;;;;;18.97;9.90;;;10.60;15.00;;;;;;5091388;28;20230;-57
2022/03/22 02:37:59;;;;;;;15.93;9.13;;;10.60;14.90;;;;;;5090783;28;20667;-57
2022/03/22 02:40:27;;;;;;;15.53;9.33;;;10.60;15.00;;;;;;5091273;28;20209;-56
2022/03/22 02:43:01;;;;;;;16.40;9.30;;;10.70;14.80;;;;;;5091293;28;20621;-56
2022/03/22 02:45:28;;;;;;;16.57;9.50;;;10.70;14.70;;;;;;5091132;28;20327;-60
2022/03/22 02:47:54;;;;;;;15.67;8.73;;;10.70;14.70;;;;;;5091025;28;20208;-57
2022/03/22 02:50:21;;;;;;;16.90;9.40;;;10.70;14.50;;;;;;5091326;28;20228;-60
2022/03/22 02:52:48;;;;;;;14.80;8.27;;;10.60;14.40;;;;;;5092501;28;20295;-58
2022/03/22 02:55:15;;;;;;;16.70;9.13;;;10.60;13.60;;;;;;5094743;28;20281;-60
2022/03/22 02:57:43;;;;;;;16.10;8.93;;;10.60;14.00;;;;;;5094400;28;20253;-61
2022/03/22 03:00:12;;;;;;;14.37;9.40;;;10.60;14.00;;;;;;5094712;28;20329;-58
2022/03/22 03:02:43;;;;;;;13.43;8.80;;;10.60;13.80;;;;;;5095008;28;20216;-58
2022/03/22 03:05:10;;;;;;;14.20;8.80;;;10.50;13.00;;;;;;5094738;28;20224;-60
2022/03/22 03:07:37;;;;;;;15.97;9.50;;;10.40;12.50;;;;;;5094384;28;20292;-61
2022/03/22 03:10:06;;;;;;;16.20;9.07;;;10.40;24.40;;;;;;5094593;28;20270;-60
2022/03/22 03:12:33;;;;;;;16.50;9.57;;;10.40;12.20;;;;;;5094366;28;20764;-60
2022/03/22 03:14:59;;;;;;;15.87;9.20;;;10.40;11.80;;;;;;5094457;28;20269;-59
2022/03/22 03:17:27;;;;;;;19.00;9.00;;;10.40;12.00;;;;;;5094267;28;20680;-60
2022/03/22 03:19:54;;;;;;;13.80;8.73;;;10.40;11.10;;;;;;5094623;28;20609;-61
2022/03/22 03:22:21;;;;;;;16.47;8.37;;;10.40;11.20;;;;;;5094407;28;20234;-61
2022/03/22 03:24:48;;;;;;;16.00;9.70;;;10.40;11.00;;;;;;5094076;28;20277;-61
2022/03/22 03:27:15;;;;;;;14.27;8.83;;;10.40;10.70;;;;;;5094227;28;20596;-61
2022/03/22 03:29:42;;;;;;;17.63;9.63;;;10.40;10.10;;;;;;5094305;28;20636;-61
2022/03/22 03:32:09;;;;;;;13.10;8.73;;;10.30;9.30;;;;;;5094542;28;20205;-61
2022/03/22 03:34:38;;;;;;;15.57;9.00;;;10.30;8.90;;;;;;5094231;28;20225;-61
2022/03/22 03:37:06;;;;;;;15.00;9.17;;;10.30;8.60;;;;;;5093728;28;20208;-62
2022/03/22 03:39:32;;;;;;;15.10;9.03;;;10.30;8.20;;;;;;5094109;28;20231;-59
2022/03/22 03:42:01;;;;;;;15.17;8.80;;;10.20;7.50;;;;;;5094049;28;20208;-61
2022/03/22 03:47:14;;;;;;;14.23;8.63;;;10.10;7.20;;;;;;5093878;28;20203;-57
2022/03/22 03:49:45;;;;;;;13.47;8.20;;;10.00;5.60;;;;;;5093815;28;20224;-57
2022/03/22 03:52:13;;;;;;;15.77;8.37;;;10.00;6.00;;;;;;5093814;28;20616;-58
2022/03/22 03:54:41;;;;;;;13.13;8.03;;;10.00;5.70;;;;;;5093895;28;20231;-60
2022/03/22 03:57:09;;;;;;;13.20;8.87;;;10.00;6.10;;;;;;5093485;28;20589;-60
2022/03/22 03:59:37;;;;;;;17.10;8.90;;;10.00;7.00;;;;;;5093677;28;20226;-61
2022/03/22 04:02:06;;;;;;;12.27;8.20;;;9.90;18.00;;;;;;5093677;28;20241;-61
2022/03/22 04:04:33;;;;;;;15.37;8.87;;;9.90;6.40;;;;;;5093432;28;20236;-56
2022/03/22 04:07:01;;;;;;;15.07;8.77;;;9.90;5.20;;;;;;5093248;28;20236;-61
2022/03/22 04:09:27;;;;;;;13.33;8.33;;;9.80;5.30;;;;;;5093633;28;20609;-61
2022/03/22 04:11:54;;;;;;;12.80;7.93;;;9.80;5.40;;;;;;5093467;28;20258;-61
2022/03/22 04:14:21;;;;;;;12.83;8.67;;;9.80;4.80;;;;;;5093393;28;20296;-61
2022/03/22 04:16:49;;;;;;;13.77;7.67;;;9.70;4.00;;;;;;5093062;28;20215;-61
2022/03/22 04:19:16;;;;;;;16.80;8.60;;;9.70;4.50;;;;;;5093116;28;20204;-62
2022/03/22 04:21:42;;;;;;;12.13;8.10;;;9.70;4.60;;;;;;5093527;28;20254;-61
2022/03/22 04:24:12;;;;;;;12.50;7.57;;;9.80;16.10;;;;;;5093218;28;20253;-61
2022/03/22 04:26:41;;;;;;;13.63;8.90;;;9.70;3.80;;;;;;5092836;28;20246;-60
2022/03/22 04:34:38;;;;;;;15.97;8.83;;;9.70;3.90;;;;;;5093116;28;20231;-61
2022/03/22 04:37:06;;;;;;;11.63;8.00;;;9.70;3.20;;;;;;5093150;28;20207;-61
2022/03/22 04:39:35;;;;;;;14.20;8.47;;;9.70;2.70;;;;;;5093619;28;20204;-59
2022/03/22 04:42:02;;;;;;;14.37;7.83;;;9.60;3.10;;;;;;5092717;28;20258;-59
2022/03/22 04:44:29;;;;;;;14.77;8.23;;;9.60;2.60;;;;;;5092907;28;20240;-61
2022/03/22 04:46:56;;;;;;;15.07;9.10;;;9.60;2.60;;;;;;5092697;28;20250;-61
2022/03/22 04:49:23;;;;;;;14.27;9.00;;;9.60;2.20;;;;;;5092493;28;20231;-61
2022/03/22 04:57:20;;;;;;;15.50;8.57;;;9.50;2.30;;;;;;5092517;28;20741;-61
2022/03/22 04:59:48;;;;;;;12.77;8.37;;;9.50;1.70;;;;;;5092549;28;20261;-61
2022/03/22 05:02:15;;;;;;;14.67;8.53;;;9.40;1.30;;;;;;5092676;28;20208;-57
2022/03/22 05:04:42;;;;;;;14.17;9.17;;;9.40;1.50;;;;;;5092356;28;20289;-59
2022/03/22 05:07:09;;;;;;;14.63;8.97;;;9.30;1.10;;;;;;5091868;28;20208;-61
2022/03/22 05:09:37;;;;;;;14.10;8.47;;;9.30;1.00;;;;;;5092629;28;20266;-59
2022/03/22 05:12:05;;;;;;;12.37;8.27;;;9.30;1.00;;;;;;5092393;28;20273;-61
2022/03/22 05:14:32;;;;;;;14.10;8.83;;;9.20;1.00;;;;;;5092474;28;20224;-59
2022/03/22 05:16:58;;;;;;;13.97;8.73;;;9.20;1.00;;;;;;5091610;28;20204;-61
2022/03/22 05:19:26;;;;;;;13.10;8.73;;;9.20;1.00;;;;;;5091879;28;20211;-60
2022/03/22 05:21:53;;;;;;;14.13;8.70;;;9.20;1.00;;;;;;5092294;28;20212;-53
2022/03/22 05:24:20;;;;;;;15.27;8.80;;;9.10;1.00;;;;;;5091927;28;20208;-61
2022/03/22 05:26:50;;;;;;;18.67;9.57;;;9.10;1.00;;;;;;5091864;28;20257;-56
2022/03/22 05:29:17;;;;;;;14.43;8.13;;;9.10;1.00;;;;;;5092084;28;20208;-59
2022/03/22 05:31:45;;;;;;;15.33;9.23;;;9.10;1.00;;;;;;5092130;28;20201;-57
2022/03/22 05:34:12;;;;;;;17.13;9.13;;;9.00;1.00;;;;;;5091727;28;20208;-58
2022/03/22 05:36:38;;;;;;;15.77;9.37;;;9.00;1.00;;;;;;5091802;28;20204;-55
2022/03/22 05:39:05;;;;;;;15.27;8.53;;;8.90;1.00;;;;;;5092266;28;20200;-57
2022/03/22 05:41:32;;;;;;;15.70;8.77;;;8.90;1.00;;;;;;5091883;28;20211;-57
2022/03/22 05:44:00;;;;;;;13.30;8.60;;;8.90;1.00;;;;;;5091907;28;20269;-54
2022/03/22 05:46:28;;;;;;;13.80;8.40;;;8.90;1.00;;;;;;5091354;28;20297;-57
2022/03/22 05:48:55;;;;;;;15.20;8.47;;;9.00;1.00;;;;;;5092109;28;20204;-58
2022/03/22 05:51:22;;;;;;;17.17;8.50;;;9.00;1.00;;;;;;5092181;28;20593;-59
2022/03/22 05:53:49;;;;;;;15.97;8.70;;;9.00;1.00;;;;;;5091821;28;20208;-55
2022/03/22 05:56:16;;;;;;;15.10;9.70;;;9.00;1.00;;;;;;5091299;28;20710;-57
2022/03/22 05:58:43;;;;;;;11.97;8.57;;;9.10;1.00;;;;;;5090905;28;20204;-59
2022/03/22 06:01:12;;;;;;;12.57;8.37;;;9.20;1.00;;;;;;5090336;28;20204;-55
2022/03/22 06:03:38;;;;;;;13.17;8.40;;;9.20;1.00;;;;;;5091204;28;20208;-56
2022/03/22 06:06:05;;;;;;;16.60;8.83;;;9.30;1.00;;;;;;5091074;28;20718;-57
2022/03/22 06:08:32;;;;;;;13.43;8.27;;;9.40;1.00;;;;;;5091791;28;20298;-57
2022/03/22 06:10:58;;;;;;;13.10;8.30;;;9.50;1.00;;;;;;5091432;28;20739;-57
2022/03/22 06:13:25;;;;;;;13.77;8.93;;;9.60;1.30;;;;;;5091337;28;20208;-59
2022/03/22 06:15:52;;;;;;;12.70;8.17;;;9.70;1.40;;;;;;5091247;28;20285;-58
2022/03/22 06:18:20;;;;;;;13.17;7.60;;;9.70;2.00;;;;;;5091578;28;20212;-61
2022/03/22 06:20:46;;;;;;;12.77;8.00;;;9.80;2.00;;;;;;5091319;28;20638;-60
2022/03/22 06:23:15;;;;;;;12.27;8.30;;;9.80;1.80;;;;;;5091451;28;20611;-57
2022/03/22 06:25:42;;;;;;;13.90;8.63;;;9.90;2.80;;;;;;5091088;28;20309;-58
2022/03/22 06:28:10;;;;;;;13.57;8.63;;;10.00;1.60;;;;;;5092921;28;20205;-54
2022/03/22 06:30:38;;;;;;;18.20;8.47;;;10.00;2.50;;;;;;5094964;28;20310;-58
2022/03/22 06:33:11;;;;;;;14.10;8.27;;;10.10;2.20;;;;;;5095307;28;20311;-57
2022/03/22 06:35:40;;;;;;;15.40;8.10;;;10.20;3.20;;;;;;5095452;28;20320;-56
2022/03/22 06:38:07;;;;;;;15.33;8.70;;;10.20;3.10;;;;;;5094364;28;20200;-65
2022/03/22 06:40:37;;;;;;;17.87;8.53;;;10.30;3.60;;;;;;5094947;28;20284;-66
2022/03/22 06:43:05;;;;;;;16.37;8.67;;;10.40;3.70;;;;;;5095060;28;20204;-67
2022/03/22 06:45:32;;;;;;;14.03;8.40;;;10.40;3.30;;;;;;5094528;28;20722;-63
2022/03/22 06:48:00;;;;;;;13.87;8.97;;;10.50;4.10;;;;;;5094923;28;20279;-62
2022/03/22 06:50:27;;;;;;;13.50;8.00;;;10.50;4.80;;;;;;5094532;28;20563;-65
2022/03/22 06:52:55;;;;;;;13.30;8.70;;;10.60;5.30;;;;;;5085926;28;20212;-64
2022/03/22 06:55:23;;;;;;;12.87;7.93;;;10.70;5.40;;;;;;5093633;28;20224;-62
2022/03/22 06:57:51;;;;;;;12.00;8.47;;;10.80;6.60;;;;;;5093988;28;20328;-63
2022/03/22 07:00:20;;;;;;;14.97;7.70;;;10.90;6.60;;;;;;5094393;28;20292;-63
2022/03/22 07:02:48;;;;;;;12.63;8.27;;;11.00;6.10;;;;;;5093606;28;20297;-63
2022/03/22 07:05:15;;;;;;;13.13;8.33;;;11.10;8.00;;;;;;5094180;28;20228;-63
2022/03/22 07:07:42;;;;;;;17.37;9.40;;;11.10;8.20;;;;;;5093563;28;20713;-63
2022/03/22 07:10:12;;;;;;;16.83;8.83;;;11.20;7.90;;;;;;5093935;28;20226;-63
2022/03/22 07:12:51;;;;;;;12.50;7.73;;;11.30;8.60;;;;;;5094098;28;20232;-64
2022/03/22 07:15:19;;;;;;;13.07;9.20;;;11.40;9.10;;;;;;5093895;28;20226;-63
2022/03/22 07:17:46;;;;;;;11.60;8.20;;;11.50;9.70;;;;;;5094026;28;20242;-66
2022/03/22 07:20:13;;;;;;;17.97;8.63;;;11.60;10.00;;;;;;5093859;28;20772;-63
2022/03/22 07:22:41;;;;;;;15.23;8.53;;;11.70;11.10;;;;;;5093432;28;20669;-63
2022/03/22 07:25:10;;;;;;;12.70;7.77;;;11.80;11.30;;;;;;5093934;28;20235;-64
2022/03/22 07:27:36;;;;;;;12.10;8.23;;;11.90;12.00;;;;;;5093186;28;20206;-64
2022/03/22 07:30:04;;;;;;;14.83;8.77;;;12.00;12.40;;;;;;5094014;28;20721;-63
2022/03/22 07:32:31;;;;;;;13.57;8.73;;;12.10;12.60;;;;;;5093708;28;20204;-63
2022/03/22 07:35:00;;;;;;;13.17;8.03;;;12.10;12.20;;;;;;5093119;28;20220;-66
2022/03/22 07:37:28;;;;;;;12.63;8.17;;;12.20;13.60;;;;;;5090744;28;20768;-62
2022/03/22 07:39:56;;;;;;;11.83;8.43;;;12.30;14.50;;;;;;5092241;28;20261;-65
2022/03/22 07:42:27;;;;;;;11.80;7.63;;;12.40;14.50;;;;;;5092932;28;20674;-64
2022/03/22 07:44:55;;;;;;;12.10;7.80;;;12.50;16.40;;;;;;5092703;28;20617;-64
2022/03/22 07:47:22;;;;;;;14.97;9.23;;;12.60;26.90;;;;;;5091583;28;20261;-64
2022/03/22 07:55:17;;;;;;;15.40;8.47;;;12.90;17.70;;;;;;5092979;28;20289;-63
2022/03/22 07:57:45;;;;;;;12.80;8.53;;;13.00;16.90;;;;;;5091870;28;20208;-63
2022/03/22 08:00:13;;;;;;;11.07;8.23;;;13.10;16.70;;;;;;5092724;28;20208;-63
2022/03/22 08:02:50;;;;;;;12.33;7.70;;;13.20;18.20;;;;;;5093098;28;20661;-64
2022/03/22 08:05:17;;;;;;;16.00;8.50;;;13.30;17.60;;;;;;5092756;28;20786;-62
2022/03/22 08:07:44;;;;;;;13.87;8.53;;;13.40;19.90;;;;;;5092111;28;20295;-64
2022/03/22 08:10:11;;;;;;;12.97;8.50;;;13.40;29.10;;;;;;5092513;28;20626;-63
2022/03/22 08:12:37;;;;;;;14.25;9.70;;;13.60;19.40;;;;;;5091508;28;20452;-63
2022/03/22 08:15:07;;;;;;;13.33;8.77;;;13.70;19.00;;;;;;5092480;28;20225;-64
2022/03/22 08:17:33;;;;;;;13.50;9.45;;;13.80;19.10;;;;;;5090476;28;21002;-64
2022/03/22 08:20:00;;;;;;;11.30;8.57;;;13.90;20.70;;;;;;5092103;28;20619;-64
2022/03/22 08:22:26;;;;;;;13.27;9.90;;;14.00;22.20;;;;;;5090742;28;20466;-64
2022/03/22 08:24:53;;;;;;;14.60;9.60;;;14.30;22.80;;;;;;5090734;28;20418;-63
2022/03/22 08:27:20;;;;;;;15.93;11.68;;;14.50;25.80;;;;;;5090289;28;20414;-63
2022/03/22 08:29:46;;;;;;;64.35;19.30;;;14.70;24.30;;;;;;5091131;28;20417;-63
2022/03/22 08:32:14;;;;;;;20.37;12.10;;;14.80;25.20;;;;;;5092137;28;20235;-62
2022/03/22 08:34:41;;;;;;;41.42;17.02;;;14.90;25.10;;;;;;5090514;28;20471;-63
2022/03/22 08:37:08;;;;;;;75.70;21.13;;;15.10;26.80;;;;;;5090303;28;20409;-65
2022/03/22 08:39:34;;;;;;;21.10;10.80;;;15.20;28.90;;;;;;5090402;28;20911;-65
2022/03/22 08:42:01;;;;;;;13.02;9.00;;;15.40;29.30;;;;;;5090971;28;20406;-66
2022/03/22 08:44:28;;;;;;;13.70;9.70;;;15.50;28.80;;;;;;5090637;28;20406;-63
2022/03/22 08:46:54;;;;;;;12.55;9.60;;;15.80;29.00;;;;;;5090162;28;20410;-64
2022/03/22 08:49:22;;;;;;;15.03;9.10;;;15.60;27.90;;;;;;5092056;28;20211;-64
2022/03/22 08:51:49;;;;;;;21.45;10.90;;;15.60;28.10;;;;;;5089499;28;20426;-64
2022/03/22 08:54:17;;;;;;;17.65;10.90;;;15.70;27.70;;;;;;5090235;28;20449;-64
2022/03/22 08:56:44;;;;;;;15.20;9.80;;;15.70;36.00;;;;;;5089816;28;20410;-62
2022/03/22 08:59:11;;;;;;;13.02;9.77;;;15.80;30.50;;;;;;5090376;28;20405;-60
2022/03/22 09:01:37;;;;;;;15.18;9.63;;;15.70;27.50;;;;;;5090192;28;20414;-63
2022/03/22 09:06:50;;;;;;;16.73;10.32;;;16.10;29.90;;;;;;5089095;28;20784;-64
2022/03/22 09:09:17;;;;;;;15.25;9.73;;;16.30;29.40;;;;;;5091574;28;20418;-64
2022/03/22 09:11:44;;;;;;;17.38;10.32;;;16.40;31.00;;;;;;5089971;28;20429;-64
2022/03/22 09:14:11;;;;;;;16.23;10.02;;;16.50;31.00;;;;;;5089316;28;20417;-65
2022/03/22 09:16:38;;;;;;;13.02;9.07;;;16.60;32.90;;;;;;5089483;28;20416;-64
2022/03/22 09:19:04;;;;;;;14.00;9.80;;;16.60;32.00;;;;;;5090778;28;20480;-65
2022/03/22 09:21:32;;;;;;;14.85;9.80;;;16.70;34.60;;;;;;5090123;28;20417;-64
2022/03/22 09:24:01;;;;;;;12.82;9.60;;;16.80;33.10;;;;;;5090456;28;20422;-65
2022/03/22 09:26:28;;;;;;;14.50;9.50;;;16.90;38.30;;;;;;5088553;28;20504;-63
2022/03/22 09:28:54;;;;;;;13.43;9.68;;;17.00;34.30;;;;;;5089458;28;20891;-65
2022/03/22 09:31:23;;;;;;;14.85;10.50;;;17.00;34.90;;;;;;5089999;28;20421;-64
2022/03/22 09:33:49;;;;;;;13.77;9.35;;;16.80;29.90;;;;;;5089450;28;20421;-64
2022/03/22 09:36:16;;;;;;;13.45;9.93;;;16.80;29.30;;;;;;5088986;28;20462;-65
2022/03/22 09:38:44;;;;;;;15.77;9.90;;;16.90;32.80;;;;;;5089235;28;20423;-66
2022/03/22 09:41:14;;;;;;;14.13;10.15;;;17.00;28.80;;;;;;5090026;28;20463;-66
2022/03/22 09:43:46;;;;;;;13.83;9.90;;;17.10;31.10;;;;;;5090000;28;20510;-64
2022/03/22 09:46:18;;;;;;;12.70;9.40;;;17.20;32.60;;;;;;5089400;28;20812;-66
2022/03/22 09:48:45;;;;;;;;;;;17.10;31.40;;;;;;5092013;28;20052;-63
2022/03/22 09:53:56;;;;;;;14.60;9.80;;;16.90;28.30;;;;;;5089719;28;20401;-65
2022/03/22 09:56:29;;;;;;;15.20;10.35;;;17.20;28.00;;;;;;5089585;28;20425;-64
2022/03/22 09:58:57;;;;;;;17.20;9.67;;;17.20;28.30;;;;;;5090704;28;20207;-64
2022/03/22 10:01:24;;;;;;;14.55;9.52;;;17.30;28.80;;;;;;5090457;28;20409;-64
2022/03/22 10:04:01;;;;;;;13.13;10.07;;;17.40;29.80;;;;;;5093896;28;20429;-64
2022/03/22 10:06:28;;;;;;;15.25;10.35;;;17.30;29.80;;;;;;5093864;28;20488;-64
2022/03/22 10:08:55;;;;;;;15.13;10.07;;;17.50;33.70;;;;;;5093967;28;20496;-66
2022/03/22 10:11:34;;;;;;;16.02;10.45;;;17.60;33.40;;;;;;5093776;28;20475;-65
2022/03/22 10:14:00;;;;;;;15.20;10.27;;;17.70;35.00;;;;;;5094077;28;20761;-64
2022/03/22 10:16:27;;;;;;;16.50;10.52;;;17.90;37.90;;;;;;5093568;28;20441;-64
2022/03/22 10:18:54;;;;;;;15.52;10.55;;;17.80;37.30;;;;;;5093748;28;20502;-67
2022/03/22 10:21:20;;;;;;;14.07;10.30;;;17.80;34.70;;;;;;5093710;28;20470;-65
2022/03/22 10:23:51;;;;;;;15.03;10.40;;;17.80;36.10;;;;;;5093123;28;20413;-65
2022/03/22 10:26:18;;;;;;;13.87;9.30;;;18.00;37.90;;;;;;5092595;28;20798;-65
2022/03/22 10:28:54;;;;;;;16.63;9.82;;;17.90;39.60;;;;;;5093596;28;20470;-65
2022/03/22 10:31:32;;;;;;;13.30;9.38;;;18.20;38.90;;;;;;5093443;28;20495;-65
2022/03/22 10:33:59;;;;;;;19.15;10.57;;;18.10;38.10;;;;;;5093100;28;20497;-65
2022/03/22 10:36:26;;;;;;;16.98;10.85;;;18.30;41.60;;;;;;5093200;28;20444;-65
2022/03/22 10:38:54;;;;;;;15.23;10.50;;;18.10;35.80;;;;;;5093463;28;20499;-64
2022/03/22 10:41:25;;;;;;;16.13;10.00;;;17.90;37.40;;;;;;5093111;28;20406;-64
2022/03/22 10:44:03;;;;;;;18.27;10.10;;;17.90;37.60;;;;;;5093399;28;20410;-64
2022/03/22 10:46:30;;;;;;;16.30;11.10;;;18.10;38.30;;;;;;5092828;28;20413;-67
2022/03/22 10:49:04;;;;;;;17.30;11.10;;;18.10;47.70;;;;;;5092873;28;20426;-68
2022/03/22 10:51:42;;;;;;;16.15;10.70;;;18.10;38.50;;;;;;5093357;28;20508;-67
2022/03/22 10:54:12;;;;;;;18.52;10.85;;;18.00;34.90;;;;;;5092803;28;20418;-68
2022/03/22 10:56:44;;;;;;;16.70;11.27;;;18.00;36.90;;;;;;5092860;28;20882;-67
2022/03/22 10:59:15;;;;;;;17.77;11.93;;;17.90;35.50;;;;;;5092884;28;20436;-65
2022/03/22 11:01:43;;;;;;;16.83;11.77;;;17.80;39.60;;;;;;5093084;28;20783;-66
2022/03/22 11:04:10;;;;;;;18.33;12.07;;;17.90;37.00;;;;;;5093109;28;20467;-63
2022/03/22 11:06:39;;;;;;;15.55;11.27;;;18.20;36.60;;;;;;5092372;28;20471;-63
2022/03/22 11:09:06;;;;;;;15.07;10.60;;;18.20;37.40;;;;;;5092779;28;20445;-63
2022/03/22 11:11:33;;;;;;;16.83;10.93;;;18.30;36.10;;;;;;5092046;28;20487;-63
2022/03/22 11:14:00;;;;;;;17.15;11.30;;;18.20;35.50;;;;;;5092800;28;20420;-62
2022/03/22 11:16:30;;;;;;;18.65;10.98;;;18.20;37.10;;;;;;5093400;28;20479;-62
2022/03/22 11:19:00;;;;;;;16.05;10.27;;;18.30;37.70;;;;;;5092334;28;20410;-64
2022/03/22 11:21:28;;;;;;;14.38;10.35;;;18.40;37.00;;;;;;5092923;28;20429;-67
2022/03/22 11:24:04;;;;;;;18.45;9.82;;;18.50;38.00;;;;;;5092774;28;20410;-65
2022/03/22 11:26:31;;;;;;;14.73;9.32;;;18.50;36.60;;;;;;5092671;28;20421;-62
2022/03/22 11:28:58;;;;;;;14.95;8.05;;;18.50;37.70;;;;;;5092448;28;20413;-63
2022/03/22 11:31:28;;;;;;;14.98;7.78;;;18.50;34.10;;;;;;5092251;28;20426;-64
2022/03/22 11:34:11;;;;;;;12.48;8.05;;;18.30;32.10;;;;;;5092926;28;20876;-64
2022/03/22 11:36:43;;;;;;;15.38;8.15;;;18.30;31.50;;;;;;5125680;22;20949;-67
2022/03/22 11:39:10;;;;;;;11.93;7.30;;;18.20;29.40;;;;;;5032097;28;20415;-68
2022/03/22 11:44:28;;;;;;;12.33;7.30;;;18.60;50.30;;;;;;5031485;28;20892;-65
2022/03/22 11:47:05;;;;;;;12.35;6.07;;;18.10;28.80;;;;;;5031399;28;20862;-68
2022/03/22 11:49:32;;;;;;;15.18;7.07;;;18.00;27.00;;;;;;5031879;28;20422;-66
2022/03/22 11:52:10;;;;;;;10.95;6.35;;;18.10;26.90;;;;;;5031875;28;20431;-65
2022/03/22 11:54:44;;;;;;;12.85;7.10;;;18.00;26.10;;;;;;5032048;28;20499;-64
2022/03/22 11:57:17;;;;;;;14.23;7.93;;;18.40;50.00;;;;;;5032046;28;20461;-63
2022/03/22 11:59:47;;;;;;;14.90;7.60;;;18.70;33.40;;;;;;5032039;28;20810;-63
2022/03/22 12:02:16;;;;;;;11.93;6.70;;;18.80;35.70;;;;;;5031499;28;20426;-64
2022/03/22 12:04:44;;;;;;;15.27;6.97;;;18.50;29.10;;;;;;5031455;28;20425;-63
2022/03/22 12:07:12;;;;;;;10.48;6.13;;;18.20;25.60;;;;;;5031098;28;20433;-64
2022/03/22 12:09:41;;;;;;;15.02;6.72;;;17.90;23.70;;;;;;5031498;28;20419;-65
2022/03/22 12:12:10;;;;;;;12.88;6.90;;;18.00;24.20;;;;;;5031322;28;20878;-65
2022/03/22 12:14:38;;;;;;;14.60;7.90;;;18.30;26.30;;;;;;5031571;28;20771;-65
2022/03/22 12:17:06;;;;;;;12.43;6.50;;;18.40;45.30;;;;;;5031104;28;20908;-62
2022/03/22 12:19:36;;;;;;;12.65;6.07;;;18.20;24.90;;;;;;5031031;28;20411;-65
2022/03/22 12:22:06;;;;;;;13.02;6.85;;;18.20;25.20;;;;;;5031194;28;20413;-66
2022/03/22 12:24:34;;;;;;;15.45;8.43;;;18.20;25.50;;;;;;5030673;28;20995;-65
2022/03/22 12:27:02;;;;;;;14.63;7.35;;;18.20;25.00;;;;;;5030647;28;20423;-65
2022/03/22 12:29:28;;;;;;;13.10;7.10;;;18.40;28.20;;;;;;5031672;28;20497;-70
2022/03/22 12:31:56;;;;;;;11.90;6.75;;;18.50;28.20;;;;;;5030494;28;20438;-67
2022/03/22 12:34:25;;;;;;;10.50;6.30;;;18.40;27.00;;;;;;5030475;28;20465;-69
2022/03/22 12:36:54;;;;;;;11.68;7.03;;;18.50;26.20;;;;;;5030631;28;20507;-71
2022/03/22 12:39:21;;;;;;;11.87;6.67;;;18.50;26.90;;;;;;5030985;28;20422;-69
2022/03/22 12:41:47;;;;;;;11.82;6.63;;;18.20;23.80;;;;;;5031013;28;20739;-68
2022/03/22 12:44:14;;;;;;;13.27;7.15;;;18.30;25.60;;;;;;5030603;28;20900;-65
2022/03/22 12:46:41;;;;;;;11.00;6.53;;;18.40;24.90;;;;;;5030630;28;20449;-64
2022/03/22 12:49:09;;;;;;;11.05;5.97;;;18.30;24.60;;;;;;5030867;28;20426;-65
2022/03/22 12:51:36;;;;;;;14.33;6.60;;;18.20;23.20;;;;;;5030280;28;20572;-65
2022/03/22 12:54:04;;;;;;;10.75;6.45;;;18.30;23.00;;;;;;5031060;28;20445;-65
2022/03/22 12:56:32;;;;;;;14.90;6.90;;;18.40;24.70;;;;;;5022186;28;20843;-65
2022/03/22 12:58:58;;;;;;;13.82;7.18;;;18.20;22.90;;;;;;5031186;28;20493;-67
2022/03/22 13:01:25;;;;;;;15.10;6.53;;;18.30;22.90;;;;;;5030931;28;20423;-66
2022/03/22 13:03:52;;;;;;;9.45;6.25;;;18.50;28.80;;;;;;5030374;28;20465;-67
2022/03/22 13:06:20;;;;;;;11.85;6.72;;;18.70;27.30;;;;;;5030488;28;21051;-67
2022/03/22 13:11:33;;;;;;;12.20;7.38;;;19.00;28.80;;;;;;5030588;28;20472;-63
2022/03/22 13:16:51;;;;;;;12.70;6.38;;;18.60;26.10;;;;;;5030058;28;20489;-65
2022/03/22 13:19:18;;;;;;;12.48;6.43;;;18.90;27.00;;;;;;5030640;28;20501;-65